Home > Products > Valid Products > TAF

000
FTUS44 KLZK 021100
TAFHOT
TAF
KHOT 021120Z 0212/0312 20006KT P6SM OVC015
      TEMPO 0213/0214 5SM -SHRA OVC010
     FM021500 22007KT P6SM BKN020 OVC040
     FM021900 20007KT P6SM SCT025 BKN040
     FM030100 19006KT P6SM SCT080
     FM030800 20006KT 5SM BR SCT015 BKN250
      AMD NOT SKED=



000
FTUS44 KLZK 021100
TAFLIT
TAF
KLIT 021120Z 0212/0312 17007KT P6SM OVC015
      TEMPO 0213/0214 5SM -SHRA OVC010
     FM021500 20008KT P6SM BKN020 OVC040
     FM021800 22010KT P6SM SCT040 BKN080
     FM030100 19006KT P6SM SCT080
     FM030800 20006KT 5SM BR SCT015 BKN250=



000
FTUS44 KLZK 021100
TAFPBF
TAF
KPBF 021120Z 0212/0312 20007KT P6SM OVC009
     FM021500 22008KT P6SM BKN020 OVC040
     FM021800 22010KT P6SM SCT040 BKN080
     FM030100 19006KT P6SM SCT080
     FM030800 20006KT 5SM BR SCT015 BKN250=



000
FTUS44 KLZK 021100
TAFHRO
TAF
KHRO 021120Z 0212/0312 16007KT P6SM -RA BKN040 BKN080
      TEMPO 0212/0215 VRB15G25KT 3SM -TSRA BKN020CB
     FM021500 22009KT P6SM SCT020 BKN080
     FM030100 19006KT P6SM SCT080
     FM030800 15009KT P6SM SCT040 OVC080 PROB30 0308/0312 4SM -TSRA
      BR SCT040CB=



000
FTUS44 KLZK 021000 AAA
TAFLIT
TAF AMD
KLIT 021025Z 0210/0306 18007KT P6SM OVC010
     FM021300 20008KT 6SM BR OVC012
     FM021500 22008KT P6SM BKN020 OVC040
     FM021800 22010KT P6SM SCT025 BKN040
     FM030100 19006KT P6SM SCT080=



000
FTUS44 KLZK 020900 AAA
TAFHRO
TAF AMD
KHRO 020940Z 0210/0306 18007KT P6SM BKN040 BKN080
      TEMPO 0210/0213 VRB15G24KT 3SM -TSRA BKN030CB
     FM021500 22009KT P6SM SCT040 BKN080
     FM030100 19006KT P6SM SCT080=



000
FTUS44 KLZK 020500
TAFPBF
TAF
KPBF 020520Z 0206/0306 17006KT P6SM SCT250
     FM020900 18006KT P6SM BKN020
     FM021200 20006KT 5SM BR SCT007 OVC012
     FM021500 22007KT P6SM BKN020 OVC040
     FM021900 22008KT P6SM SCT025 BKN040
     FM030100 19006KT P6SM SCT080=



000
FTUS44 KLZK 020500
TAFLIT
TAF
KLIT 020520Z 0206/0306 17006KT P6SM SCT250
     FM021000 18007KT P6SM BKN020
     FM021300 20008KT 6SM BR OVC012
     FM021500 22008KT P6SM BKN020 OVC040
     FM021800 22010KT P6SM SCT025 BKN040
     FM030100 19006KT P6SM SCT080=



000
FTUS44 KLZK 020500
TAFHOT
TAF
KHOT 020520Z 0206/0306 17006KT P6SM SCT250
     FM020800 18006KT P6SM BKN020
     FM021200 20006KT 5SM BR OVC012
     FM021500 22007KT P6SM BKN020 OVC040
     FM021900 20007KT P6SM SCT025 BKN040
     FM030100 19006KT P6SM SCT080
      AMD NOT SKED=



000
FTUS44 KLZK 020500
TAFHRO
TAF
KHRO 020520Z 0206/0306 13008KT P6SM VCTS SCT040CB BKN120
      TEMPO 0206/0208 VRB15G30KT 3SM -TSRA BKN025CB
     FM020800 16007KT P6SM VCTS SCT025 BKN040CB
     FM021000 18007KT P6SM BKN040 BKN080
      TEMPO 0210/0213 -TSRA BKN030CB
     FM021500 22009KT P6SM SCT040 BKN080 PROB30 0218/0224 5SM -TSRA
      BKN040CB
     FM030100 19006KT P6SM SCT080=



000
FTUS44 KLZK 012300
TAFPBF
TAF
KPBF 012330Z 0200/0224 17006KT P6SM SCT250
     FM020900 18006KT P6SM BKN020
     FM021200 20006KT 5SM BR SCT007 OVC012
     FM021500 22007KT P6SM BKN020 OVC040
     FM021900 22008KT P6SM SCT025 BKN040=



000
FTUS44 KLZK 012300
TAFLIT
TAF
KLIT 012330Z 0200/0224 17010G18KT P6SM SCT040 SCT250
     FM020100 17006KT P6SM SCT250
     FM021000 18007KT P6SM BKN020
     FM021300 20008KT 6SM BR OVC012
     FM021500 22008KT P6SM BKN020 OVC040
     FM021800 22010KT P6SM SCT025 BKN040=



000
FTUS44 KLZK 012300
TAFHRO
TAF
KHRO 012330Z 0200/0224 16008G18KT P6SM SCT040
     FM020200 15008KT P6SM VCSH SCT035 BKN120
     FM020700 16007KT P6SM VCTS SCT025 BKN040CB PROB30 0209/0215 4SM
      -TSRA BR BKN025CB
     FM021500 22009KT P6SM BKN070=



000
FTUS44 KLZK 012300
TAFHOT
TAF
KHOT 012330Z 0200/0224 17006KT P6SM SCT250
     FM020800 18006KT P6SM BKN020
     FM021200 20006KT 5SM BR OVC012
     FM021500 22007KT P6SM BKN020 OVC040
     FM021900 20007KT P6SM SCT025 BKN040
      AMD NOT SKED=



000
FTUS44 KLZK 011800 CCA
TAFLIT
TAF COR
KLIT 011800Z 0118/0218 20012KT P6SM BKN035
     FM011930 19010G18KT P6SM BKN050
     FM020100 17006KT P6SM SCT250
     FM021000 18007KT P6SM BKN020
     FM021300 20008KT 6SM BR OVC012
     FM021500 22008KT P6SM BKN020 OVC040=



000
FTUS44 KLZK 011700
TAFLIT
TAF
KLIT 011739Z 0118/0218 20008KT P6SM BKN028 BKN035
     FM012000 19012KT P6SM BKN050
     FM020100 17006KT P6SM SCT250
     FM021000 18007KT P6SM BKN020
     FM021300 20008KT 6SM BR OVC012
     FM021500 22008KT P6SM BKN020 OVC040=



000
FTUS44 KLZK 011700
TAFHRO
TAF
KHRO 011739Z 0118/0218 14008KT P6SM OVC040
     FM011930 16008G18KT P6SM BKN050
     FM020100 15008KT P6SM SCT050 BKN120
     FM020900 16007KT P6SM VCTS SCT025 BKN050CB PROB30 0209/0215 4SM
      -TSRA BR BKN025CB
     FM021500 22009KT P6SM BKN100=



000
FTUS44 KLZK 011700
TAFHOT
TAF
KHOT 011739Z 0118/0218 21008KT P6SM BKN040
     FM011930 19012KT P6SM SCT050
     FM020100 17006KT P6SM SCT250
     FM020900 18006KT P6SM BKN020
     FM021200 20006KT 5SM BR OVC012
     FM021500 22007KT P6SM BKN020 OVC040
      AMD NOT SKED=



000
FTUS44 KLZK 011700
TAFPBF
TAF
KPBF 011739Z 0118/0218 23007KT P6SM VCSH BKN040
     FM012000 20012KT P6SM SCT050
     FM020100 17006KT P6SM SCT250
     FM020800 18006KT P6SM BKN020
     FM021200 20006KT 5SM BR SCT007 OVC012
     FM021500 22007KT P6SM BKN020 OVC040=



000
FTUS44 KLZK 011400 AAA
TAFHRO
TAF AMD
KHRO 011403Z 0114/0212 VRB06KT P6SM VCTS OVC050CB
     FM011700 19012G20KT P6SM SCT050 BKN250
     FM020000 16009KT P6SM SCT040 SCT100
     FM020300 16008KT P6SM VCTS SCT040CB BKN100=



000
FTUS44 KLZK 011300 AAA
TAFLIT
TAF AMD
KLIT 011356Z 0114/0212 22006KT P6SM BKN015 OVC025
     FM011600 20008G16KT P6SM BKN025 OVC040
     FM011800 19010G18KT P6SM SCT040
     FM020000 15006KT P6SM SCT100=



000
FTUS44 KLZK 011300 AAA
TAFPBF
TAF AMD
KPBF 011330Z 0114/0212 19006KT P6SM OVC008
      TEMPO 0114/0116 SCT008 OVC020
     FM011600 20012KT P6SM BKN025
     FM011800 19010G18KT P6SM SCT040
     FM020000 15006KT P6SM SCT100=



000
FTUS44 KLZK 011100
TAFPBF
TAF
KPBF 011120Z 0112/0212 19006KT P6SM SCT015 SCT250
      TEMPO 0112/0114 4SM BR SCT008 BKN015
     FM011500 20010G18KT P6SM SCT040 SCT250
     FM020000 15006KT P6SM SCT040 SCT100=



000
FTUS44 KLZK 011100
TAFHRO
TAF
KHRO 011120Z 0112/0212 16008KT P6SM VCTS SCT025 BKN040CB
      TEMPO 0112/0114 VRB15G30KT 3SM -TSRA BR OVC025CB
     FM011400 19012G20KT P6SM SCT025 SCT060
     FM020000 16009KT P6SM SCT040 SCT100
     FM020200 16008KT P6SM VCTS SCT040CB BKN100=



000
FTUS44 KLZK 011100
TAFHOT
TAF
KHOT 011120Z 0112/0212 23010KT P6SM SCT008 OVC012
      TEMPO 0112/0114 4SM BR OVC008
     FM011500 20008G16KT P6SM SCT040 SCT250
     FM020000 15006KT P6SM SCT040 SCT100
      AMD NOT SKED=



000
FTUS44 KLZK 011100
TAFLIT
TAF
KLIT 011120Z 0112/0212 23010KT P6SM SCT008 OVC015
      TEMPO 0112/0114 4SM BR OVC008
     FM011500 20008G16KT P6SM SCT040 SCT250
     FM020000 15006KT P6SM SCT040 SCT100=



000
FTUS44 KLZK 010500
TAFLIT
TAF
KLIT 010520Z 0106/0206 18009KT P6SM SCT015 SCT250
      TEMPO 0110/0114 4SM BR SCT008 BKN015
     FM011500 20010G18KT P6SM SCT040 SCT250
     FM020000 15006KT P6SM SCT040 SCT100=



000
FTUS44 KLZK 010500
TAFPBF
TAF
KPBF 010520Z 0106/0206 18006KT P6SM SCT250
     FM010900 19006KT P6SM SCT015 SCT250
      TEMPO 0109/0113 4SM BR SCT008 BKN015
     FM011500 20010G18KT P6SM SCT040 SCT250
     FM020000 15006KT P6SM SCT040 SCT100=



000
FTUS44 KLZK 010500
TAFHOT
TAF
KHOT 010520Z 0106/0206 16007KT P6SM SCT250
      TEMPO 0109/0113 4SM BR SCT008 BKN015
     FM011500 20008G16KT P6SM SCT040 SCT250
     FM020000 15006KT P6SM SCT040 SCT100
      AMD NOT SKED=



000
FTUS44 KLZK 010500
TAFHRO
TAF
KHRO 010520Z 0106/0206 16008KT P6SM SCT025 SCT250 WS020/22040KT
      TEMPO 0110/0114 5SM BR BKN015
     FM011500 19012G20KT P6SM SCT040 BKN250
     FM020000 16009KT P6SM BKN040 BKN100=



000
FTUS44 KLZK 312300
TAFLIT
TAF
KLIT 312336Z 0100/0124 16006KT P6SM VCSH SCT025 SCT250
     FM010200 16006KT P6SM SCT250
     FM011000 19006KT P6SM SCT015 SCT250
      TEMPO 0110/0114 4SM BR SCT008 BKN018
     FM011500 20010G18KT P6SM SCT040 SCT250=



000
FTUS44 KLZK 312300
TAFHRO
TAF
KHRO 312336Z 0100/0124 18008KT P6SM SCT250
     FM010600 17008KT P6SM SCT250 WS020/22040KT
     FM011500 19012G20KT P6SM SCT040 BKN250=



000
FTUS44 KLZK 312300
TAFHOT
TAF
KHOT 312336Z 0100/0124 16007KT P6SM SCT250
     FM010900 19006KT P6SM SCT015 SCT250
      TEMPO 0109/0113 4SM BR SCT008 BKN015
     FM011500 20008G16KT P6SM SCT040 SCT250
      AMD NOT SKED=



000
FTUS44 KLZK 312300
TAFPBF
TAF
KPBF 312336Z 0100/0124 18006KT P6SM VCSH SCT025 SCT250
     FM010100 16006KT P6SM SCT250
     FM010900 19006KT P6SM SCT015 SCT250
      TEMPO 0109/0113 4SM BR SCT008 BKN015
     FM011500 20010G18KT P6SM SCT040 SCT250=



000
FTUS44 KLZK 311700
TAFHRO
TAF
KHRO 311720Z 3118/0118 18008KT P6SM SCT040 SCT250
     FM010000 16008KT P6SM SCT250
     FM011500 19014G20KT P6SM SCT040 WS020/22040KT=



000
FTUS44 KLZK 311700
TAFLIT
TAF
KLIT 311720Z 3118/0118 20009KT P6SM SCT015 SCT060
      TEMPO 3118/3121 BKN010
     FM010000 15006KT P6SM SCT250
      TEMPO 0109/0113 4SM BR SCT025
     FM011500 22012G20KT P6SM SCT040 BKN250=



000
FTUS44 KLZK 311700
TAFPBF
TAF
KPBF 311720Z 3118/0118 21007KT P6SM SCT012 BKN020
      TEMPO 3118/3120 BKN012
     FM312000 20009KT P6SM SCT020 SCT060
     FM010000 16006KT P6SM SCT250
      TEMPO 0109/0113 4SM BR SCT025
     FM011500 21010G18KT P6SM SCT040 SCT250=



000
FTUS44 KLZK 311700
TAFHOT
TAF
KHOT 311720Z 3118/0118 21007KT P6SM BKN060
      TEMPO 3118/3120 BKN010
     FM010000 15006KT P6SM SCT250
     FM011500 20009G16KT P6SM SCT040 SCT250 WS020/22035KT
      AMD NOT SKED=



000
FTUS44 KLZK 311600 AAA
TAFPBF
TAF AMD
KPBF 311605Z 3116/0112 21007KT P6SM SCT015 BKN025
      TEMPO 3116/3119 BKN012
     FM311900 20009KT P6SM SCT035 BKN250
     FM010000 15006KT P6SM SCT250=



000
FTUS44 KLZK 311600 AAA
TAFLIT
TAF AMD
KLIT 311603Z 3116/0112 20009KT P6SM SCT015 SCT060
      TEMPO 3116/3119 BKN010
     FM010000 15006KT P6SM SCT250=



000
FTUS44 KLZK 311100
TAFHOT
TAF
KHOT 311120Z 3112/0112 VRB03KT 5SM BR SCT005 BKN020
      TEMPO 3112/3113 2SM BR BKN009
     FM311500 21007KT P6SM SCT060 SCT250
     FM010000 15006KT P6SM SCT250
      AMD NOT SKED=



000
FTUS44 KLZK 311100
TAFPBF
TAF
KPBF 311120Z 3112/0112 20004KT 6SM BR VCSH SCT008 OVC015
      TEMPO 3112/3114 2SM BR BKN008
     FM311500 21007KT P6SM SCT015 BKN025
     FM311800 20009KT P6SM SCT035 BKN250
     FM010000 15006KT P6SM SCT250=



000
FTUS44 KLZK 311100
TAFHRO
TAF
KHRO 311120Z 3112/0112 VRB03KT 6SM BR SCT250
      TEMPO 3112/3113 3SM BR
     FM311500 18008KT P6SM SCT060 SCT250
     FM010000 16008KT P6SM SCT250=



000
FTUS44 KLZK 311100
TAFLIT
TAF
KLIT 311120Z 3112/0112 21004KT 6SM BR SCT010 OVC020
      TEMPO 3112/3114 4SM BR BKN010
     FM311500 20009KT P6SM SCT060 SCT250
     FM010000 15006KT P6SM SCT250=



000
FTUS44 KLZK 311000 AAA
TAFLIT
TAF AMD
KLIT 311030Z 3111/0106 19004KT P6SM BKN010 OVC015
      TEMPO 3111/3112 2SM BR BKN008
     FM311500 21009KT P6SM SCT040 BKN250=



000
FTUS44 KLZK 310500
TAFHOT
TAF
KHOT 310520Z 3106/0106 VRB03KT P6SM VCSH SCT010 BKN025
      TEMPO 3106/3108 5SM BR BKN010
     FM310800 VRB03KT 5SM BR SCT020 BKN060
      TEMPO 3109/3113 2SM BR BKN015
     FM311500 21007KT P6SM SCT040 SCT250
     FM010000 15006KT P6SM SCT250
      AMD NOT SKED=



000
FTUS44 KLZK 310500
TAFHRO
TAF
KHRO 310520Z 3106/0106 VRB03KT P6SM SCT100 SCT250
     FM310800 VRB03KT 5SM BR SCT020 SCT250
      TEMPO 3109/3113 2SM BR BKN015
     FM311500 18008KT P6SM SCT040 SCT250
     FM010000 16008KT P6SM SCT250=



000
FTUS44 KLZK 310500
TAFLIT
TAF
KLIT 310520Z 3106/0106 15005KT P6SM VCSH SCT008 BKN015
      TEMPO 3106/3108 5SM BR BKN008
     FM310800 21004KT 5SM BR SCT012 BKN025
      TEMPO 3108/3112 2SM BR BKN008
     FM311500 21009KT P6SM SCT040 BKN250=



000
FTUS44 KLZK 310500
TAFPBF
TAF
KPBF 310520Z 3106/0106 14005KT P6SM VCSH SCT006 BKN015
     FM310700 20004KT 5SM BR VCSH SCT008 OVC020
      TEMPO 3109/3113 2SM BR BKN005
     FM311500 21007KT P6SM SCT015 BKN025
     FM311800 20009KT P6SM SCT035 BKN250=



000
FTUS44 KLZK 310300 AAB
TAFPBF
TAF AMD
KPBF 310304Z 3103/3124 14005KT P6SM VCSH SCT007 BKN050
      TEMPO 3103/3107 5SM -RA BR BKN007
     FM310700 20004KT 5SM BR VCSH SCT005 OVC020
      TEMPO 3109/3113 2SM BR BKN005
     FM311500 21007KT P6SM SCT015 BKN025
     FM311800 20009KT P6SM SCT035 BKN250=



000
FTUS44 KLZK 310000 AAA
TAFPBF
TAF AMD
KPBF 310004Z 3100/3124 14005KT P6SM VCSH SCT025 BKN060
      TEMPO 3100/3104 5SM -RA BR BKN020
     FM310400 20004KT 5SM BR VCSH SCT007 OVC020
      TEMPO 3109/3113 2SM BR BKN007
     FM311500 21007KT P6SM SCT015 BKN025
     FM311800 20009KT P6SM SCT035 BKN250=



000
FTUS44 KLZK 302300 RRA
TAFPBF
TAF
KPBF 302341Z 3100/3124 14005KT P6SM VCSH SCT025 BKN060
      TEMPO 3104/3108 5SM -RA BR BKN020
     FM310800 20004KT 5SM BR VCSH SCT007 OVC020
      TEMPO 3109/3113 2SM BR BKN007
     FM311500 21007KT P6SM SCT015 BKN025
     FM311800 20009KT P6SM SCT035 BKN250=



000
FTUS44 KLZK 302300 RRA
TAFLIT
TAF
KLIT 302341Z 3100/3124 17005KT P6SM VCSH SCT025 BKN080
      TEMPO 3104/3108 5SM BR BKN025
     FM310800 21004KT 5SM BR SCT020 BKN060
      TEMPO 3109/3113 2SM BR BKN015
     FM311500 21009KT P6SM SCT040 BKN250=



000
FTUS44 KLZK 302300 RRA
TAFHRO
TAF
KHRO 302341Z 3100/3124 VRB03KT P6SM SCT100 SCT250
     FM310800 VRB03KT 5SM BR SCT020 SCT250
      TEMPO 3109/3113 2SM BR BKN015
     FM311500 18008KT P6SM SCT040 SCT250=



000
FTUS44 KLZK 302300 RRA
TAFHOT
TAF
KHOT 302341Z 3100/3124 VRB03KT P6SM VCSH SCT025 BKN080
      TEMPO 3104/3108 5SM BR BKN025
     FM310800 VRB03KT 5SM BR SCT020 BKN060
      TEMPO 3109/3113 2SM BR BKN015
     FM311500 21007KT P6SM SCT040 SCT250
      AMD NOT SKED=



000
FTUS44 KLZK 302200 AAA
TAFPBF
TAF AMD
KPBF 302222Z 3022/3118 14009KT P6SM VCSH SCT025 BKN100
     FM310000 15006KT 5SM BR VCSH BKN015 OVC025
     FM310900 VRB05KT 3SM BR BKN010
      TEMPO 3110/3114 1SM BR BKN005
     FM311600 20009KT P6SM BKN025 BKN040=



000
FTUS44 KLZK 302200 AAB
TAFLIT
TAF AMD
KLIT 302219Z 3022/3118 18007KT P6SM VCSH SCT030 BKN100
     FM310600 VRB03KT 4SM BR BKN010 OVC025
      TEMPO 3109/3113 2SM BR BKN005 OVC010
     FM311500 20008KT P6SM SCT025 BKN040=



000
FTUS44 KLZK 301900 AAA
TAFLIT
TAF AMD
KLIT 301908Z 3019/3118 18007KT P6SM VCSH SCT010 BKN025
      TEMPO 3020/3024 TSRA BKN010CB
     FM310600 VRB03KT 4SM BR BKN010 OVC025
      TEMPO 3109/3113 2SM BR BKN005 OVC010
     FM311500 20008KT P6SM SCT025 BKN040=



000
FTUS44 KLZK 301700
TAFLIT
TAF
KLIT 301725Z 3018/3118 18007KT P6SM VCSH SCT010 SCT060
      TEMPO 3020/3024 TSRA BKN010CB
     FM310000 16004KT P6SM VCSH BKN025 OVC040
     FM310600 VRB03KT 4SM BR BKN010 OVC025
      TEMPO 3109/3113 2SM BR BKN005 OVC010
     FM311500 20008KT P6SM SCT025 BKN040=



000
FTUS44 KLZK 301700
TAFPBF
TAF
KPBF 301725Z 3018/3118 16009KT P6SM -RA SCT015 BKN040
      TEMPO 3020/3024 TSRA BKN015CB
     FM310000 17007KT 5SM -SHRA VCTS BKN015CB OVC025
     FM310800 VRB06KT 3SM BR VCSH BKN010
      TEMPO 3110/3114 1SM BR BKN005
     FM311600 20009KT P6SM BKN025 BKN040=



000
FTUS44 KLZK 301700
TAFHRO
TAF
KHRO 301725Z 3018/3118 17006KT P6SM VCSH SCT040 BKN100
     FM310000 VRB03KT P6SM SCT100 SCT250
     FM310600 VRB03KT 3SM BR SCT005 SCT250
      TEMPO 3109/3113 1SM BR BKN005
     FM311500 19007KT P6SM SCT040 BKN100=



000
FTUS44 KLZK 301700
TAFHOT
TAF
KHOT 301725Z 3018/3118 15005KT P6SM VCSH SCT040 BKN060
     FM310000 13005KT P6SM VCSH SCT015 BKN025
     FM310600 VRB02KT 4SM BR VCSH BKN015 OVC025
      TEMPO 3109/3113 2SM BR BKN010 OVC015
     FM311500 21006KT P6SM SCT015 BKN025
     FM311700 20008KT P6SM SCT025 BKN040
      AMD NOT SKED=



000
FTUS44 KLZK 301400 AAA
TAFHRO
TAF AMD
KHRO 301428Z 3014/3112 15008KT P6SM VCSH SCT040 BKN100
      TEMPO 3014/3017 SCT015 BKN025
     FM301700 17006KT P6SM FEW060 FEW120
     FM310000 15004KT P6SM SCT250=



000
FTUS44 KLZK 301300 AAA
TAFHOT
TAF AMD
KHOT 301335Z 3014/3112 16004KT P6SM BKN020 OVC100
     FM301600 15005KT P6SM SCT020 BKN060
     FM310000 13005KT P6SM SCT015 BKN027
      AMD NOT SKED=



    US Dept of Commerce
    National Oceanic and Atmospheric Administration
    National Weather Service
    1325 East West Highway
    Silver Spring, MD 20910
    Page Author: NWS Internet Services Team
Disclaimer
Information Quality
Credits
Glossary
Privacy Policy
Freedom of Information Act (FOIA)
About Us
Career Opportunities